sensor_id;sensor_type;location;lat;lon;timestamp;temperature;humidity
8220;DHT22;4151;51.110;7.020;2023-04-03T00:01:26;0.70;99.90
8220;DHT22;4151;51.110;7.020;2023-04-03T00:03:51;0.70;99.90
8220;DHT22;4151;51.110;7.020;2023-04-03T00:06:17;0.70;99.90
8220;DHT22;4151;51.110;7.020;2023-04-03T00:08:43;0.60;99.90
8220;DHT22;4151;51.110;7.020;2023-04-03T00:11:10;0.60;99.90
8220;DHT22;4151;51.110;7.020;2023-04-03T00:13:36;0.60;99.90
8220;DHT22;4151;51.110;7.020;2023-04-03T00:16:02;0.50;99.90
8220;DHT22;4151;51.110;7.020;2023-04-03T00:18:29;0.50;99.90
8220;DHT22;4151;51.110;7.020;2023-04-03T00:20:54;0.50;99.90
8220;DHT22;4151;51.110;7.020;2023-04-03T00:23:20;0.40;99.90
8220;DHT22;4151;51.110;7.020;2023-04-03T00:25:46;0.40;99.90
8220;DHT22;4151;51.110;7.020;2023-04-03T00:28:12;0.40;99.90
8220;DHT22;4151;51.110;7.020;2023-04-03T00:30:37;0.40;99.90
8220;DHT22;4151;51.110;7.020;2023-04-03T00:33:03;0.30;99.90
8220;DHT22;4151;51.110;7.020;2023-04-03T00:35:29;0.40;99.90
8220;DHT22;4151;51.110;7.020;2023-04-03T00:37:55;0.30;99.90
8220;DHT22;4151;51.110;7.020;2023-04-03T00:40:23;0.30;99.90
8220;DHT22;4151;51.110;7.020;2023-04-03T00:42:54;0.30;99.90
8220;DHT22;4151;51.110;7.020;2023-04-03T00:45:28;0.30;99.90
8220;DHT22;4151;51.110;7.020;2023-04-03T00:47:55;0.20;99.90
8220;DHT22;4151;51.110;7.020;2023-04-03T00:50:21;0.20;99.90
8220;DHT22;4151;51.110;7.020;2023-04-03T00:52:47;0.20;99.90
8220;DHT22;4151;51.110;7.020;2023-04-03T00:55:15;0.20;99.90
8220;DHT22;4151;51.110;7.020;2023-04-03T00:57:41;0.20;99.90
8220;DHT22;4151;51.110;7.020;2023-04-03T01:00:10;0.10;99.90
8220;DHT22;4151;51.110;7.020;2023-04-03T01:02:37;0.20;99.90
8220;DHT22;4151;51.110;7.020;2023-04-03T01:05:03;0.20;99.90
8220;DHT22;4151;51.110;7.020;2023-04-03T01:07:30;0.20;99.90
8220;DHT22;4151;51.110;7.020;2023-04-03T01:10:02;0.10;99.90
8220;DHT22;4151;51.110;7.020;2023-04-03T01:12:31;0.10;99.90
8220;DHT22;4151;51.110;7.020;2023-04-03T01:15:00;0.10;99.90
8220;DHT22;4151;51.110;7.020;2023-04-03T01:17:38;0.10;99.90
8220;DHT22;4151;51.110;7.020;2023-04-03T01:23:24;0.10;99.90
8220;DHT22;4151;51.110;7.020;2023-04-03T01:25:54;0.10;99.90
8220;DHT22;4151;51.110;7.020;2023-04-03T01:28:24;0.10;99.90
8220;DHT22;4151;51.110;7.020;2023-04-03T01:33:24;0.10;99.90
8220;DHT22;4151;51.110;7.020;2023-04-03T01:35:49;0.10;99.90
8220;DHT22;4151;51.110;7.020;2023-04-03T01:38:15;0.10;99.90
8220;DHT22;4151;51.110;7.020;2023-04-03T01:40:41;0.10;99.90
8220;DHT22;4151;51.110;7.020;2023-04-03T01:43:07;0.10;99.90
8220;DHT22;4151;51.110;7.020;2023-04-03T01:45:33;0.10;99.90
8220;DHT22;4151;51.110;7.020;2023-04-03T01:47:58;0.10;99.90
8220;DHT22;4151;51.110;7.020;2023-04-03T01:50:24;0.00;99.90
8220;DHT22;4151;51.110;7.020;2023-04-03T01:52:50;0.00;99.90
8220;DHT22;4151;51.110;7.020;2023-04-03T01:55:15;0.00;99.90
8220;DHT22;4151;51.110;7.020;2023-04-03T01:57:41;-0.10;99.90
8220;DHT22;4151;51.110;7.020;2023-04-03T02:00:07;-0.10;99.90
8220;DHT22;4151;51.110;7.020;2023-04-03T02:02:33;-0.10;99.90
8220;DHT22;4151;51.110;7.020;2023-04-03T02:04:58;-0.10;99.90
8220;DHT22;4151;51.110;7.020;2023-04-03T02:07:24;-0.10;99.90
8220;DHT22;4151;51.110;7.020;2023-04-03T02:09:49;-0.10;99.90
8220;DHT22;4151;51.110;7.020;2023-04-03T02:12:15;-0.10;99.90
8220;DHT22;4151;51.110;7.020;2023-04-03T02:14:41;-0.10;99.90
8220;DHT22;4151;51.110;7.020;2023-04-03T02:17:06;0.00;99.90
8220;DHT22;4151;51.110;7.020;2023-04-03T02:19:34;0.00;99.90
8220;DHT22;4151;51.110;7.020;2023-04-03T02:22:01;0.00;99.90
8220;DHT22;4151;51.110;7.020;2023-04-03T02:24:27;-0.10;99.90
8220;DHT22;4151;51.110;7.020;2023-04-03T02:26:52;-0.10;99.90
8220;DHT22;4151;51.110;7.020;2023-04-03T02:29:18;-0.10;99.90
8220;DHT22;4151;51.110;7.020;2023-04-03T02:31:44;-0.20;99.90
8220;DHT22;4151;51.110;7.020;2023-04-03T02:34:09;-0.20;99.90
8220;DHT22;4151;51.110;7.020;2023-04-03T02:36:35;-0.30;99.90
8220;DHT22;4151;51.110;7.020;2023-04-03T02:39:01;-0.30;99.90
8220;DHT22;4151;51.110;7.020;2023-04-03T02:41:26;-0.30;99.90
8220;DHT22;4151;51.110;7.020;2023-04-03T02:43:58;-0.30;99.90
8220;DHT22;4151;51.110;7.020;2023-04-03T02:46:24;-0.30;99.90
8220;DHT22;4151;51.110;7.020;2023-04-03T02:48:50;-0.40;99.90
8220;DHT22;4151;51.110;7.020;2023-04-03T02:51:15;-0.40;99.90
8220;DHT22;4151;51.110;7.020;2023-04-03T02:53:41;-0.40;99.90
8220;DHT22;4151;51.110;7.020;2023-04-03T02:56:07;-0.40;99.90
8220;DHT22;4151;51.110;7.020;2023-04-03T02:58:32;-0.40;99.90
8220;DHT22;4151;51.110;7.020;2023-04-03T03:00:58;-0.40;99.90
8220;DHT22;4151;51.110;7.020;2023-04-03T03:03:23;-0.40;99.90
8220;DHT22;4151;51.110;7.020;2023-04-03T03:05:49;-0.50;99.90
8220;DHT22;4151;51.110;7.020;2023-04-03T03:08:14;-0.50;99.90
8220;DHT22;4151;51.110;7.020;2023-04-03T03:10:40;-0.50;99.90
8220;DHT22;4151;51.110;7.020;2023-04-03T03:13:05;-0.40;99.90
8220;DHT22;4151;51.110;7.020;2023-04-03T03:15:31;-0.40;99.90
8220;DHT22;4151;51.110;7.020;2023-04-03T03:17:57;-0.40;99.90
8220;DHT22;4151;51.110;7.020;2023-04-03T03:20:22;-0.40;99.90
8220;DHT22;4151;51.110;7.020;2023-04-03T03:22:48;-0.40;99.90
8220;DHT22;4151;51.110;7.020;2023-04-03T03:25:13;-0.40;99.90
8220;DHT22;4151;51.110;7.020;2023-04-03T03:27:39;-0.30;99.90
8220;DHT22;4151;51.110;7.020;2023-04-03T03:30:05;-0.20;99.90
8220;DHT22;4151;51.110;7.020;2023-04-03T03:32:31;-0.20;99.90
8220;DHT22;4151;51.110;7.020;2023-04-03T03:34:57;-0.20;99.90
8220;DHT22;4151;51.110;7.020;2023-04-03T03:37:22;-0.10;99.90
8220;DHT22;4151;51.110;7.020;2023-04-03T03:39:48;-0.10;99.90
8220;DHT22;4151;51.110;7.020;2023-04-03T03:42:13;0.00;99.90
8220;DHT22;4151;51.110;7.020;2023-04-03T03:44:39;0.00;99.90
8220;DHT22;4151;51.110;7.020;2023-04-03T03:47:05;0.10;99.90
8220;DHT22;4151;51.110;7.020;2023-04-03T03:49:31;0.10;99.90
8220;DHT22;4151;51.110;7.020;2023-04-03T03:51:57;0.10;99.90
8220;DHT22;4151;51.110;7.020;2023-04-03T03:54:22;0.10;99.90
8220;DHT22;4151;51.110;7.020;2023-04-03T03:56:48;0.20;99.90
8220;DHT22;4151;51.110;7.020;2023-04-03T03:59:13;0.20;99.90
8220;DHT22;4151;51.110;7.020;2023-04-03T04:01:39;0.20;99.90
8220;DHT22;4151;51.110;7.020;2023-04-03T04:04:05;0.20;99.90
8220;DHT22;4151;51.110;7.020;2023-04-03T04:06:30;0.20;99.90
8220;DHT22;4151;51.110;7.020;2023-04-03T04:08:56;0.20;99.90
8220;DHT22;4151;51.110;7.020;2023-04-03T04:11:21;0.20;99.90
8220;DHT22;4151;51.110;7.020;2023-04-03T04:13:47;0.20;99.90
8220;DHT22;4151;51.110;7.020;2023-04-03T04:16:13;0.10;99.90
8220;DHT22;4151;51.110;7.020;2023-04-03T04:18:38;0.20;99.90
8220;DHT22;4151;51.110;7.020;2023-04-03T04:21:04;0.20;99.90
8220;DHT22;4151;51.110;7.020;2023-04-03T04:23:29;0.10;99.90
8220;DHT22;4151;51.110;7.020;2023-04-03T04:25:55;0.10;99.90
8220;DHT22;4151;51.110;7.020;2023-04-03T04:28:20;0.10;99.90
8220;DHT22;4151;51.110;7.020;2023-04-03T04:30:46;0.20;99.90
8220;DHT22;4151;51.110;7.020;2023-04-03T04:33:12;0.30;99.90
8220;DHT22;4151;51.110;7.020;2023-04-03T04:35:39;0.20;99.90
8220;DHT22;4151;51.110;7.020;2023-04-03T04:38:04;0.30;99.90
8220;DHT22;4151;51.110;7.020;2023-04-03T04:40:30;0.30;99.90
8220;DHT22;4151;51.110;7.020;2023-04-03T04:42:56;0.30;99.90
8220;DHT22;4151;51.110;7.020;2023-04-03T04:45:21;0.20;99.90
8220;DHT22;4151;51.110;7.020;2023-04-03T04:47:47;0.20;99.90
8220;DHT22;4151;51.110;7.020;2023-04-03T04:50:12;0.20;99.90
8220;DHT22;4151;51.110;7.020;2023-04-03T04:52:38;0.20;99.90
8220;DHT22;4151;51.110;7.020;2023-04-03T04:55:04;0.20;99.90
8220;DHT22;4151;51.110;7.020;2023-04-03T04:57:30;0.20;99.90
8220;DHT22;4151;51.110;7.020;2023-04-03T04:59:55;0.20;99.90
8220;DHT22;4151;51.110;7.020;2023-04-03T05:02:21;0.20;99.90
8220;DHT22;4151;51.110;7.020;2023-04-03T05:04:46;0.30;99.90
8220;DHT22;4151;51.110;7.020;2023-04-03T05:07:12;0.20;99.90
8220;DHT22;4151;51.110;7.020;2023-04-03T05:09:38;0.30;99.90
8220;DHT22;4151;51.110;7.020;2023-04-03T05:12:04;0.30;99.90
8220;DHT22;4151;51.110;7.020;2023-04-03T05:14:29;0.30;99.90
8220;DHT22;4151;51.110;7.020;2023-04-03T05:16:55;0.30;99.90
8220;DHT22;4151;51.110;7.020;2023-04-03T05:19:21;0.30;99.90
8220;DHT22;4151;51.110;7.020;2023-04-03T05:21:47;0.30;99.90
8220;DHT22;4151;51.110;7.020;2023-04-03T05:24:13;0.30;99.90
8220;DHT22;4151;51.110;7.020;2023-04-03T05:26:38;0.30;99.90
8220;DHT22;4151;51.110;7.020;2023-04-03T05:29:04;0.30;99.90
8220;DHT22;4151;51.110;7.020;2023-04-03T05:31:30;0.30;99.90
8220;DHT22;4151;51.110;7.020;2023-04-03T05:33:56;0.40;99.90
8220;DHT22;4151;51.110;7.020;2023-04-03T05:36:22;0.40;99.90
8220;DHT22;4151;51.110;7.020;2023-04-03T05:38:48;0.40;99.90
8220;DHT22;4151;51.110;7.020;2023-04-03T05:41:14;0.40;99.90
8220;DHT22;4151;51.110;7.020;2023-04-03T05:43:40;0.50;99.90
8220;DHT22;4151;51.110;7.020;2023-04-03T05:46:13;0.50;99.90
8220;DHT22;4151;51.110;7.020;2023-04-03T05:48:38;0.60;99.90
8220;DHT22;4151;51.110;7.020;2023-04-03T05:51:05;0.60;99.90
8220;DHT22;4151;51.110;7.020;2023-04-03T05:53:34;0.60;99.90
8220;DHT22;4151;51.110;7.020;2023-04-03T05:56:01;0.60;99.90
8220;DHT22;4151;51.110;7.020;2023-04-03T05:58:26;0.70;99.90
8220;DHT22;4151;51.110;7.020;2023-04-03T06:00:52;0.70;99.90
8220;DHT22;4151;51.110;7.020;2023-04-03T06:03:18;0.80;99.90
8220;DHT22;4151;51.110;7.020;2023-04-03T06:05:43;0.80;99.90
8220;DHT22;4151;51.110;7.020;2023-04-03T06:08:09;0.90;99.90
8220;DHT22;4151;51.110;7.020;2023-04-03T06:10:35;1.00;99.90
8220;DHT22;4151;51.110;7.020;2023-04-03T06:13:01;1.10;99.90
8220;DHT22;4151;51.110;7.020;2023-04-03T06:15:27;1.10;99.90
8220;DHT22;4151;51.110;7.020;2023-04-03T06:17:52;1.20;99.90
8220;DHT22;4151;51.110;7.020;2023-04-03T06:20:18;1.20;99.90
8220;DHT22;4151;51.110;7.020;2023-04-03T06:22:44;1.30;99.90
8220;DHT22;4151;51.110;7.020;2023-04-03T06:25:09;1.30;99.90
8220;DHT22;4151;51.110;7.020;2023-04-03T06:27:35;1.40;99.90
8220;DHT22;4151;51.110;7.020;2023-04-03T06:30:01;1.50;99.90
8220;DHT22;4151;51.110;7.020;2023-04-03T06:32:26;1.60;99.90
8220;DHT22;4151;51.110;7.020;2023-04-03T06:34:52;1.60;99.90
8220;DHT22;4151;51.110;7.020;2023-04-03T06:37:21;1.80;99.90
8220;DHT22;4151;51.110;7.020;2023-04-03T06:39:48;1.80;99.90
8220;DHT22;4151;51.110;7.020;2023-04-03T06:42:13;1.90;99.90
8220;DHT22;4151;51.110;7.020;2023-04-03T06:44:39;2.00;99.90
8220;DHT22;4151;51.110;7.020;2023-04-03T06:47:05;2.10;99.90
8220;DHT22;4151;51.110;7.020;2023-04-03T06:49:31;2.20;99.90
8220;DHT22;4151;51.110;7.020;2023-04-03T06:51:57;2.30;99.90
8220;DHT22;4151;51.110;7.020;2023-04-03T06:54:23;2.40;99.90
8220;DHT22;4151;51.110;7.020;2023-04-03T06:56:48;2.50;99.90
8220;DHT22;4151;51.110;7.020;2023-04-03T06:59:15;2.60;99.90
8220;DHT22;4151;51.110;7.020;2023-04-03T07:01:40;2.60;99.90
8220;DHT22;4151;51.110;7.020;2023-04-03T07:04:07;2.70;99.90
8220;DHT22;4151;51.110;7.020;2023-04-03T07:06:33;2.80;99.90
8220;DHT22;4151;51.110;7.020;2023-04-03T07:09:00;2.90;99.90
8220;DHT22;4151;51.110;7.020;2023-04-03T07:11:25;3.00;99.90
8220;DHT22;4151;51.110;7.020;2023-04-03T07:13:52;3.10;99.90
8220;DHT22;4151;51.110;7.020;2023-04-03T07:16:17;3.20;99.90
8220;DHT22;4151;51.110;7.020;2023-04-03T07:18:43;3.20;99.90
8220;DHT22;4151;51.110;7.020;2023-04-03T07:21:09;3.30;99.90
8220;DHT22;4151;51.110;7.020;2023-04-03T07:23:35;3.40;99.90
8220;DHT22;4151;51.110;7.020;2023-04-03T07:26:00;3.40;99.90
8220;DHT22;4151;51.110;7.020;2023-04-03T07:28:26;3.50;99.90
8220;DHT22;4151;51.110;7.020;2023-04-03T07:31:03;3.60;99.90
8220;DHT22;4151;51.110;7.020;2023-04-03T07:33:30;3.70;99.90
8220;DHT22;4151;51.110;7.020;2023-04-03T07:35:56;3.80;99.90
8220;DHT22;4151;51.110;7.020;2023-04-03T07:38:22;3.90;99.90
8220;DHT22;4151;51.110;7.020;2023-04-03T07:40:49;3.90;99.90
8220;DHT22;4151;51.110;7.020;2023-04-03T07:43:16;4.00;99.90
8220;DHT22;4151;51.110;7.020;2023-04-03T07:45:43;4.10;99.90
8220;DHT22;4151;51.110;7.020;2023-04-03T07:48:09;4.10;99.90
8220;DHT22;4151;51.110;7.020;2023-04-03T07:50:35;4.20;99.90
8220;DHT22;4151;51.110;7.020;2023-04-03T07:53:02;4.30;99.90
8220;DHT22;4151;51.110;7.020;2023-04-03T07:55:28;4.40;99.90
8220;DHT22;4151;51.110;7.020;2023-04-03T07:57:53;4.40;99.90
8220;DHT22;4151;51.110;7.020;2023-04-03T08:00:19;4.50;99.90
8220;DHT22;4151;51.110;7.020;2023-04-03T08:02:45;4.70;99.90
8220;DHT22;4151;51.110;7.020;2023-04-03T08:05:16;4.80;99.90
8220;DHT22;4151;51.110;7.020;2023-04-03T08:07:42;4.90;99.90
8220;DHT22;4151;51.110;7.020;2023-04-03T08:10:08;5.10;99.90
8220;DHT22;4151;51.110;7.020;2023-04-03T08:12:34;5.20;99.90
8220;DHT22;4151;51.110;7.020;2023-04-03T08:15:00;5.40;99.90
8220;DHT22;4151;51.110;7.020;2023-04-03T08:17:26;5.60;99.90
8220;DHT22;4151;51.110;7.020;2023-04-03T08:19:52;5.80;99.90
8220;DHT22;4151;51.110;7.020;2023-04-03T08:22:17;6.10;99.90
8220;DHT22;4151;51.110;7.020;2023-04-03T08:24:43;6.40;99.90
8220;DHT22;4151;51.110;7.020;2023-04-03T08:27:09;6.70;99.90
8220;DHT22;4151;51.110;7.020;2023-04-03T08:29:34;6.90;99.90
8220;DHT22;4151;51.110;7.020;2023-04-03T08:32:00;7.10;99.90
8220;DHT22;4151;51.110;7.020;2023-04-03T08:34:25;7.20;99.90
8220;DHT22;4151;51.110;7.020;2023-04-03T08:36:51;7.60;99.90
8220;DHT22;4151;51.110;7.020;2023-04-03T08:39:17;7.90;99.90
8220;DHT22;4151;51.110;7.020;2023-04-03T08:41:43;8.10;99.90
8220;DHT22;4151;51.110;7.020;2023-04-03T08:47:00;9.10;99.90
8220;DHT22;4151;51.110;7.020;2023-04-03T08:49:43;9.50;99.90
8220;DHT22;4151;51.110;7.020;2023-04-03T08:53:01;9.80;99.90
8220;DHT22;4151;51.110;7.020;2023-04-03T08:55:06;9.70;99.90
8220;DHT22;4151;51.110;7.020;2023-04-03T08:57:39;9.30;99.90
8220;DHT22;4151;51.110;7.020;2023-04-03T09:00:16;9.70;99.90
8220;DHT22;4151;51.110;7.020;2023-04-03T09:02:50;9.90;99.90
8220;DHT22;4151;51.110;7.020;2023-04-03T09:05:19;10.20;99.90
8220;DHT22;4151;51.110;7.020;2023-04-03T09:07:49;10.10;99.90
8220;DHT22;4151;51.110;7.020;2023-04-03T09:10:24;10.10;99.90
8220;DHT22;4151;51.110;7.020;2023-04-03T09:13:04;10.30;99.90
8220;DHT22;4151;51.110;7.020;2023-04-03T09:15:33;10.40;99.90
8220;DHT22;4151;51.110;7.020;2023-04-03T09:18:03;10.70;99.90
8220;DHT22;4151;51.110;7.020;2023-04-03T09:23:50;10.80;99.90
8220;DHT22;4151;51.110;7.020;2023-04-03T09:26:24;10.60;99.90
8220;DHT22;4151;51.110;7.020;2023-04-03T09:28:58;10.50;99.90
8220;DHT22;4151;51.110;7.020;2023-04-03T09:31:37;11.00;99.90
8220;DHT22;4151;51.110;7.020;2023-04-03T09:34:07;11.00;99.90
8220;DHT22;4151;51.110;7.020;2023-04-03T09:36:46;11.00;99.90
8220;DHT22;4151;51.110;7.020;2023-04-03T09:39:15;11.00;99.90
8220;DHT22;4151;51.110;7.020;2023-04-03T09:41:54;11.00;99.90
8220;DHT22;4151;51.110;7.020;2023-04-03T09:44:23;11.30;99.90
8220;DHT22;4151;51.110;7.020;2023-04-03T09:46:49;11.50;99.90
8220;DHT22;4151;51.110;7.020;2023-04-03T09:49:15;11.40;99.90
8220;DHT22;4151;51.110;7.020;2023-04-03T09:51:40;11.10;99.90
8220;DHT22;4151;51.110;7.020;2023-04-03T09:54:32;11.40;99.90
8220;DHT22;4151;51.110;7.020;2023-04-03T09:57:05;11.50;99.90
8220;DHT22;4151;51.110;7.020;2023-04-03T09:59:31;11.70;99.90
8220;DHT22;4151;51.110;7.020;2023-04-03T10:02:00;12.40;99.90
8220;DHT22;4151;51.110;7.020;2023-04-03T10:04:38;12.40;99.90
8220;DHT22;4151;51.110;7.020;2023-04-03T10:07:34;12.40;99.90
8220;DHT22;4151;51.110;7.020;2023-04-03T10:10:18;13.10;99.90
8220;DHT22;4151;51.110;7.020;2023-04-03T10:12:45;13.20;97.90
8220;DHT22;4151;51.110;7.020;2023-04-03T10:15:13;13.70;97.10
8220;DHT22;4151;51.110;7.020;2023-04-03T10:17:58;13.80;93.70
8220;DHT22;4151;51.110;7.020;2023-04-03T10:20:39;13.80;91.90
8220;DHT22;4151;51.110;7.020;2023-04-03T10:23:15;14.10;91.20
8220;DHT22;4151;51.110;7.020;2023-04-03T10:28:27;13.80;89.00
8220;DHT22;4151;51.110;7.020;2023-04-03T10:33:48;14.80;84.80
8220;DHT22;4151;51.110;7.020;2023-04-03T10:36:34;15.00;82.90
8220;DHT22;4151;51.110;7.020;2023-04-03T10:39:23;15.00;80.70
8220;DHT22;4151;51.110;7.020;2023-04-03T10:52:52;15.10;78.30
8220;DHT22;4151;51.110;7.020;2023-04-03T10:55:24;15.20;77.70
8220;DHT22;4151;51.110;7.020;2023-04-03T10:57:57;15.30;77.30
8220;DHT22;4151;51.110;7.020;2023-04-03T11:02:58;15.50;76.70
8220;DHT22;4151;51.110;7.020;2023-04-03T11:05:39;15.90;73.20
8220;DHT22;4151;51.110;7.020;2023-04-03T11:08:13;15.70;73.90
8220;DHT22;4151;51.110;7.020;2023-04-03T11:10:44;15.40;73.80
8220;DHT22;4151;51.110;7.020;2023-04-03T11:13:28;15.80;74.50
8220;DHT22;4151;51.110;7.020;2023-04-03T11:15:58;16.00;71.60
8220;DHT22;4151;51.110;7.020;2023-04-03T11:18:51;16.80;72.80
8220;DHT22;4151;51.110;7.020;2023-04-03T11:24:06;17.30;68.90
8220;DHT22;4151;51.110;7.020;2023-04-03T11:26:38;18.00;68.90
8220;DHT22;4151;51.110;7.020;2023-04-03T11:29:09;17.50;68.60
8220;DHT22;4151;51.110;7.020;2023-04-03T11:34:42;18.20;66.40
8220;DHT22;4151;51.110;7.020;2023-04-03T11:39:59;17.50;67.40
8220;DHT22;4151;51.110;7.020;2023-04-03T11:47:58;16.70;67.30
8220;DHT22;4151;51.110;7.020;2023-04-03T11:58:20;17.00;66.30
8220;DHT22;4151;51.110;7.020;2023-04-03T12:16:05;18.40;61.00
8220;DHT22;4151;51.110;7.020;2023-04-03T12:21:07;17.60;61.30
8220;DHT22;4151;51.110;7.020;2023-04-03T12:23:35;17.30;61.90
8220;DHT22;4151;51.110;7.020;2023-04-03T12:26:21;17.90;61.70
8220;DHT22;4151;51.110;7.020;2023-04-03T12:28:48;18.50;63.00
8220;DHT22;4151;51.110;7.020;2023-04-03T12:31:15;18.50;64.10
8220;DHT22;4151;51.110;7.020;2023-04-03T12:36:49;19.00;63.00
8220;DHT22;4151;51.110;7.020;2023-04-03T12:40:01;20.00;62.40
8220;DHT22;4151;51.110;7.020;2023-04-03T12:43:11;19.30;61.10
8220;DHT22;4151;51.110;7.020;2023-04-03T12:51:26;20.10;60.00
8220;DHT22;4151;51.110;7.020;2023-04-03T12:54:00;20.10;59.30
8220;DHT22;4151;51.110;7.020;2023-04-03T12:56:31;19.30;60.60
8220;DHT22;4151;51.110;7.020;2023-04-03T12:59:18;19.40;60.50
8220;DHT22;4151;51.110;7.020;2023-04-03T13:01:44;19.60;59.60
8220;DHT22;4151;51.110;7.020;2023-04-03T13:04:18;19.50;60.50
8220;DHT22;4151;51.110;7.020;2023-04-03T13:06:44;19.40;61.10
8220;DHT22;4151;51.110;7.020;2023-04-03T13:09:25;19.40;61.00
8220;DHT22;4151;51.110;7.020;2023-04-03T13:14:25;19.80;60.40
8220;DHT22;4151;51.110;7.020;2023-04-03T13:16:58;19.70;60.00
8220;DHT22;4151;51.110;7.020;2023-04-03T13:19:26;19.60;61.50
8220;DHT22;4151;51.110;7.020;2023-04-03T13:22:00;20.20;60.40
8220;DHT22;4151;51.110;7.020;2023-04-03T13:24:29;20.70;59.60
8220;DHT22;4151;51.110;7.020;2023-04-03T13:26:55;20.70;58.60
8220;DHT22;4151;51.110;7.020;2023-04-03T13:29:38;19.70;58.50
8220;DHT22;4151;51.110;7.020;2023-04-03T13:32:06;19.20;59.60
8220;DHT22;4151;51.110;7.020;2023-04-03T13:34:42;19.10;60.90
8220;DHT22;4151;51.110;7.020;2023-04-03T13:40:17;20.10;58.90
8220;DHT22;4151;51.110;7.020;2023-04-03T13:42:42;19.10;60.30
8220;DHT22;4151;51.110;7.020;2023-04-03T13:47:44;20.10;59.70
8220;DHT22;4151;51.110;7.020;2023-04-03T13:50:18;19.00;60.70
8220;DHT22;4151;51.110;7.020;2023-04-03T13:55:24;19.60;59.90
8220;DHT22;4151;51.110;7.020;2023-04-03T13:57:59;20.10;60.00
8220;DHT22;4151;51.110;7.020;2023-04-03T14:03:07;20.10;58.80
8220;DHT22;4151;51.110;7.020;2023-04-03T14:05:36;19.40;60.10
8220;DHT22;4151;51.110;7.020;2023-04-03T14:08:02;20.40;58.40
8220;DHT22;4151;51.110;7.020;2023-04-03T14:10:28;20.30;58.40
8220;DHT22;4151;51.110;7.020;2023-04-03T14:12:53;21.00;57.80
8220;DHT22;4151;51.110;7.020;2023-04-03T14:15:26;21.40;58.00
8220;DHT22;4151;51.110;7.020;2023-04-03T14:17:52;21.80;57.20
8220;DHT22;4151;51.110;7.020;2023-04-03T14:20:22;22.10;55.70
8220;DHT22;4151;51.110;7.020;2023-04-03T14:22:48;22.00;55.10
8220;DHT22;4151;51.110;7.020;2023-04-03T14:25:15;21.30;55.80
8220;DHT22;4151;51.110;7.020;2023-04-03T14:27:46;21.40;55.90
8220;DHT22;4151;51.110;7.020;2023-04-03T14:30:21;22.00;55.90
8220;DHT22;4151;51.110;7.020;2023-04-03T14:32:48;22.60;55.20
8220;DHT22;4151;51.110;7.020;2023-04-03T14:35:16;22.90;54.30
8220;DHT22;4151;51.110;7.020;2023-04-03T14:37:42;22.00;55.30
8220;DHT22;4151;51.110;7.020;2023-04-03T14:40:11;21.40;56.30
8220;DHT22;4151;51.110;7.020;2023-04-03T14:42:38;21.40;56.50
8220;DHT22;4151;51.110;7.020;2023-04-03T14:45:06;22.50;55.80
8220;DHT22;4151;51.110;7.020;2023-04-03T14:47:33;22.90;54.50
8220;DHT22;4151;51.110;7.020;2023-04-03T14:50:04;22.70;55.60
8220;DHT22;4151;51.110;7.020;2023-04-03T14:52:34;22.60;54.90
8220;DHT22;4151;51.110;7.020;2023-04-03T14:55:03;23.10;55.90
8220;DHT22;4151;51.110;7.020;2023-04-03T14:57:30;22.20;55.60
8220;DHT22;4151;51.110;7.020;2023-04-03T14:59:56;22.80;55.70
8220;DHT22;4151;51.110;7.020;2023-04-03T15:02:34;23.10;54.70
8220;DHT22;4151;51.110;7.020;2023-04-03T15:05:03;22.90;56.10
8220;DHT22;4151;51.110;7.020;2023-04-03T15:07:32;23.40;55.10
8220;DHT22;4151;51.110;7.020;2023-04-03T15:10:05;23.20;55.10
8220;DHT22;4151;51.110;7.020;2023-04-03T15:12:32;24.20;53.30
8220;DHT22;4151;51.110;7.020;2023-04-03T15:14:57;25.00;53.70
8220;DHT22;4151;51.110;7.020;2023-04-03T15:17:23;24.40;51.80
8220;DHT22;4151;51.110;7.020;2023-04-03T15:19:49;24.30;53.30
8220;DHT22;4151;51.110;7.020;2023-04-03T15:22:17;23.80;51.70
8220;DHT22;4151;51.110;7.020;2023-04-03T15:24:43;23.30;52.40
8220;DHT22;4151;51.110;7.020;2023-04-03T15:27:09;24.20;52.60
8220;DHT22;4151;51.110;7.020;2023-04-03T15:29:36;24.00;52.50
8220;DHT22;4151;51.110;7.020;2023-04-03T15:32:02;23.40;52.00
8220;DHT22;4151;51.110;7.020;2023-04-03T15:34:28;23.80;52.70
8220;DHT22;4151;51.110;7.020;2023-04-03T15:36:54;24.20;52.80
8220;DHT22;4151;51.110;7.020;2023-04-03T15:39:20;23.40;52.10
8220;DHT22;4151;51.110;7.020;2023-04-03T15:41:46;24.10;52.50
8220;DHT22;4151;51.110;7.020;2023-04-03T15:44:12;24.30;52.10
8220;DHT22;4151;51.110;7.020;2023-04-03T15:46:38;23.60;52.00
8220;DHT22;4151;51.110;7.020;2023-04-03T15:49:05;24.20;52.60
8220;DHT22;4151;51.110;7.020;2023-04-03T15:51:31;23.60;51.30
8220;DHT22;4151;51.110;7.020;2023-04-03T15:53:56;22.50;51.90
8220;DHT22;4151;51.110;7.020;2023-04-03T15:56:22;22.50;53.40
8220;DHT22;4151;51.110;7.020;2023-04-03T15:58:48;21.70;53.40
8220;DHT22;4151;51.110;7.020;2023-04-03T16:01:13;21.90;54.10
8220;DHT22;4151;51.110;7.020;2023-04-03T16:03:41;22.60;52.80
8220;DHT22;4151;51.110;7.020;2023-04-03T16:06:11;22.40;53.40
8220;DHT22;4151;51.110;7.020;2023-04-03T16:08:37;23.70;52.60
8220;DHT22;4151;51.110;7.020;2023-04-03T16:11:03;24.10;51.50
8220;DHT22;4151;51.110;7.020;2023-04-03T16:13:28;23.80;51.40
8220;DHT22;4151;51.110;7.020;2023-04-03T16:15:55;23.60;51.90
8220;DHT22;4151;51.110;7.020;2023-04-03T16:18:20;24.30;52.20
8220;DHT22;4151;51.110;7.020;2023-04-03T16:20:46;24.50;52.20
8220;DHT22;4151;51.110;7.020;2023-04-03T16:23:12;24.30;51.00
8220;DHT22;4151;51.110;7.020;2023-04-03T16:25:38;23.90;51.50
8220;DHT22;4151;51.110;7.020;2023-04-03T16:28:03;23.60;51.40
8220;DHT22;4151;51.110;7.020;2023-04-03T16:30:29;23.10;52.30
8220;DHT22;4151;51.110;7.020;2023-04-03T16:32:56;23.10;51.90
8220;DHT22;4151;51.110;7.020;2023-04-03T16:35:22;22.90;52.80
8220;DHT22;4151;51.110;7.020;2023-04-03T16:37:48;22.00;53.20
8220;DHT22;4151;51.110;7.020;2023-04-03T16:40:14;22.20;53.70
8220;DHT22;4151;51.110;7.020;2023-04-03T16:42:40;22.40;54.50
8220;DHT22;4151;51.110;7.020;2023-04-03T16:45:06;21.40;53.60
8220;DHT22;4151;51.110;7.020;2023-04-03T16:47:32;20.80;54.80
8220;DHT22;4151;51.110;7.020;2023-04-03T16:49:58;19.80;55.50
8220;DHT22;4151;51.110;7.020;2023-04-03T16:52:23;19.30;56.80
8220;DHT22;4151;51.110;7.020;2023-04-03T16:54:49;20.30;56.50
8220;DHT22;4151;51.110;7.020;2023-04-03T16:57:17;20.80;55.30
8220;DHT22;4151;51.110;7.020;2023-04-03T16:59:42;21.50;55.10
8220;DHT22;4151;51.110;7.020;2023-04-03T17:02:08;21.50;54.60
8220;DHT22;4151;51.110;7.020;2023-04-03T17:04:33;21.40;54.60
8220;DHT22;4151;51.110;7.020;2023-04-03T17:06:59;21.50;54.60
8220;DHT22;4151;51.110;7.020;2023-04-03T17:09:30;21.10;55.10
8220;DHT22;4151;51.110;7.020;2023-04-03T17:11:56;21.00;55.70
8220;DHT22;4151;51.110;7.020;2023-04-03T17:14:21;19.40;57.20
8220;DHT22;4151;51.110;7.020;2023-04-03T17:16:47;18.60;58.30
8220;DHT22;4151;51.110;7.020;2023-04-03T17:19:12;18.40;59.30
8220;DHT22;4151;51.110;7.020;2023-04-03T17:21:38;18.30;59.40
8220;DHT22;4151;51.110;7.020;2023-04-03T17:24:05;16.70;60.50
8220;DHT22;4151;51.110;7.020;2023-04-03T17:26:33;15.20;63.20
8220;DHT22;4151;51.110;7.020;2023-04-03T17:28:59;13.80;66.70
8220;DHT22;4151;51.110;7.020;2023-04-03T17:31:25;12.50;69.30
8220;DHT22;4151;51.110;7.020;2023-04-03T17:33:50;11.70;73.00
8220;DHT22;4151;51.110;7.020;2023-04-03T17:36:16;11.10;75.00
8220;DHT22;4151;51.110;7.020;2023-04-03T17:38:41;10.70;77.10
8220;DHT22;4151;51.110;7.020;2023-04-03T17:41:08;10.10;79.00
8220;DHT22;4151;51.110;7.020;2023-04-03T17:43:34;9.70;81.60
8220;DHT22;4151;51.110;7.020;2023-04-03T17:46:06;9.20;84.20
8220;DHT22;4151;51.110;7.020;2023-04-03T17:48:34;9.10;86.80